SWA737 KMCO-KHOU
Flight info
| Callsign | SWA737 |
|---|---|
| Flight time | N/A |
| Altitude | 38000 |
| Route | OSPRY1 REMIS Y280 LEV PUCKS4 |
| Aircraft | B38M/M-SADE2E3GHIJ4J7P2RWZ/LB1D1 |
Departure
| Time | 2026-05-04 00:38 |
|---|---|
| Airport | Orlando International Airport (KMCO) |
Arrival
| Time | N/A |
|---|---|
| Airport | William P. Hobby Airport (KHOU) |
| Time | Latitude | Longitude | Altitude | Speed | Heading |
|---|---|---|---|---|---|
| 2026-05-03 23:53 | 28.42729 | -81.30372 | 105 ft | 0 kts | 109° |
| 2026-05-04 00:24 | 28.42731 | -81.30381 | 105 ft | 4 kts | 112° |
| 2026-05-04 00:24 | 28.42740 | -81.30409 | 104 ft | 4 kts | 111° |
| 2026-05-04 00:24 | 28.42753 | -81.30433 | 103 ft | 4 kts | 147° |
| 2026-05-04 00:24 | 28.42773 | -81.30437 | 104 ft | 2 kts | 211° |
| 2026-05-04 00:25 | 28.42778 | -81.30433 | 103 ft | 0 kts | 212° |
| 2026-05-04 00:29 | 28.42772 | -81.30437 | 104 ft | 3 kts | 211° |
| 2026-05-04 00:29 | 28.42734 | -81.30459 | 104 ft | 9 kts | 202° |
| 2026-05-04 00:30 | 28.42665 | -81.30464 | 104 ft | 11 kts | 169° |
| 2026-05-04 00:30 | 28.42602 | -81.30422 | 103 ft | 11 kts | 133° |
| 2026-05-04 00:30 | 28.42565 | -81.30353 | 105 ft | 10 kts | 118° |
| 2026-05-04 00:30 | 28.42528 | -81.30277 | 105 ft | 12 kts | 119° |
| 2026-05-04 00:31 | 28.42481 | -81.30184 | 105 ft | 16 kts | 119° |
| 2026-05-04 00:31 | 28.42434 | -81.30075 | 104 ft | 9 kts | 125° |
| 2026-05-04 00:31 | 28.42375 | -81.30050 | 103 ft | 8 kts | 148° |
| 2026-05-04 00:31 | 28.42363 | -81.29985 | 102 ft | 10 kts | 89° |
| 2026-05-04 00:32 | 28.42364 | -81.29893 | 101 ft | 13 kts | 89° |
| 2026-05-04 00:32 | 28.42334 | -81.29799 | 102 ft | 14 kts | 156° |
| 2026-05-04 00:32 | 28.42234 | -81.29792 | 100 ft | 15 kts | 180° |
| 2026-05-04 00:32 | 28.42121 | -81.29790 | 101 ft | 17 kts | 178° |
| 2026-05-04 00:33 | 28.41996 | -81.29789 | 101 ft | 19 kts | 179° |
| 2026-05-04 00:33 | 28.41714 | -81.29786 | 102 ft | 22 kts | 180° |
| 2026-05-04 00:33 | 28.41556 | -81.29784 | 100 ft | 24 kts | 179° |
| 2026-05-04 00:34 | 28.41385 | -81.29784 | 99 ft | 25 kts | 179° |
| 2026-05-04 00:34 | 28.41208 | -81.29781 | 100 ft | 26 kts | 179° |
| 2026-05-04 00:34 | 28.41025 | -81.29779 | 100 ft | 23 kts | 180° |
| 2026-05-04 00:34 | 28.40868 | -81.29776 | 99 ft | 20 kts | 176° |
| 2026-05-04 00:35 | 28.40821 | -81.29700 | 98 ft | 12 kts | 88° |
| 2026-05-04 00:35 | 28.40821 | -81.29671 | 97 ft | 0 kts | 88° |
| 2026-05-04 00:35 | 28.40821 | -81.29670 | 97 ft | 1 kts | 88° |
| 2026-05-04 00:35 | 28.40822 | -81.29632 | 97 ft | 10 kts | 89° |
| 2026-05-04 00:36 | 28.40860 | -81.29564 | 97 ft | 12 kts | 21° |
| 2026-05-04 00:36 | 28.40909 | -81.29561 | 95 ft | 0 kts | 357° |
| 2026-05-04 00:37 | 28.40963 | -81.29564 | 95 ft | 32 kts | 358° |
| 2026-05-04 00:38 | 28.41425 | -81.29566 | 101 ft | 99 kts | 359° |
| 2026-05-04 00:38 | 28.42319 | -81.29581 | 99 ft | 156 kts | 357° |
| 2026-05-04 00:38 | 28.43473 | -81.29672 | 585 ft | 169 kts | 359° |
| 2026-05-04 00:38 | 28.44663 | -81.29772 | 1286 ft | 174 kts | 2° |
| 2026-05-04 00:39 | 28.45926 | -81.29795 | 1915 ft | 187 kts | 4° |
| 2026-05-04 00:39 | 28.47264 | -81.29861 | 2602 ft | 198 kts | 357° |
| 2026-05-04 00:39 | 28.48648 | -81.30175 | 3355 ft | 207 kts | 349° |
| 2026-05-04 00:39 | 28.50054 | -81.30534 | 4252 ft | 202 kts | 350° |
| 2026-05-04 00:40 | 28.51390 | -81.30851 | 5241 ft | 194 kts | 347° |
| 2026-05-04 00:40 | 28.52778 | -81.31303 | 5232 ft | 219 kts | 340° |
| 2026-05-04 00:40 | 28.54250 | -81.31945 | 4755 ft | 231 kts | 337° |
| 2026-05-04 00:40 | 28.55712 | -81.32683 | 4878 ft | 232 kts | 333° |
| 2026-05-04 00:41 | 28.57163 | -81.33592 | 5123 ft | 244 kts | 331° |
| 2026-05-04 00:41 | 28.58673 | -81.34561 | 5388 ft | 257 kts | 327° |
| 2026-05-04 00:41 | 28.59975 | -81.35989 | 5625 ft | 266 kts | 298° |
| 2026-05-04 00:41 | 28.60373 | -81.37298 | 5652 ft | 267 kts | 276° |
| 2026-05-04 00:42 | 28.60180 | -81.39388 | 5868 ft | 267 kts | 253° |
| 2026-05-04 00:42 | 28.59684 | -81.41449 | 6167 ft | 273 kts | 261° |
| 2026-05-04 00:42 | 28.59562 | -81.43598 | 6378 ft | 273 kts | 269° |
| 2026-05-04 00:42 | 28.59569 | -81.45756 | 6599 ft | 274 kts | 271° |
| 2026-05-04 00:43 | 28.59600 | -81.47924 | 6614 ft | 275 kts | 270° |
| 2026-05-04 00:43 | 28.59330 | -81.50048 | 7394 ft | 273 kts | 248° |
| 2026-05-04 00:43 | 28.58275 | -81.51829 | 8404 ft | 271 kts | 229° |
| 2026-05-04 00:43 | 28.56969 | -81.53373 | 9412 ft | 271 kts | 229° |
| 2026-05-04 00:44 | 28.55673 | -81.54945 | 10296 ft | 275 kts | 231° |
| 2026-05-04 00:44 | 28.54367 | -81.56623 | 10743 ft | 293 kts | 231° |
| 2026-05-04 00:44 | 28.52979 | -81.58428 | 11102 ft | 312 kts | 231° |
| 2026-05-04 00:44 | 28.51524 | -81.60333 | 11604 ft | 325 kts | 231° |
| 2026-05-04 00:45 | 28.50043 | -81.62280 | 12416 ft | 325 kts | 231° |
| 2026-05-04 00:45 | 28.48560 | -81.64233 | 13246 ft | 328 kts | 231° |
| 2026-05-04 00:45 | 28.47067 | -81.66201 | 14050 ft | 329 kts | 231° |
| 2026-05-04 00:45 | 28.45567 | -81.68177 | 14793 ft | 331 kts | 231° |
| 2026-05-04 00:46 | 28.44061 | -81.70162 | 15546 ft | 332 kts | 231° |
| 2026-05-04 00:46 | 28.42545 | -81.72158 | 16272 ft | 334 kts | 231° |
| 2026-05-04 00:46 | 28.41024 | -81.74159 | 16983 ft | 336 kts | 231° |
| 2026-05-04 00:46 | 28.39493 | -81.76174 | 17674 ft | 338 kts | 231° |
| 2026-05-04 00:47 | 28.37957 | -81.78194 | 18353 ft | 339 kts | 231° |
| 2026-05-04 00:47 | 28.36410 | -81.80227 | 18923 ft | 341 kts | 231° |
| 2026-05-04 00:47 | 28.34850 | -81.82275 | 19443 ft | 344 kts | 231° |
| 2026-05-04 00:47 | 28.33280 | -81.84337 | 19973 ft | 347 kts | 232° |
| 2026-05-04 00:48 | 28.31696 | -81.86416 | 20501 ft | 350 kts | 232° |
| 2026-05-04 00:48 | 28.30181 | -81.88582 | 21014 ft | 351 kts | 241° |
| 2026-05-04 00:48 | 28.29288 | -81.91152 | 21537 ft | 353 kts | 255° |
| 2026-05-04 00:48 | 28.28705 | -81.93869 | 22013 ft | 356 kts | 255° |
| 2026-05-04 00:49 | 28.28140 | -81.96612 | 22522 ft | 359 kts | 256° |
| 2026-05-04 00:49 | 28.27587 | -81.99385 | 23017 ft | 362 kts | 256° |
| 2026-05-04 00:49 | 28.27041 | -82.02185 | 23510 ft | 365 kts | 256° |
| 2026-05-04 00:49 | 28.26497 | -82.05006 | 23944 ft | 368 kts | 256° |
| 2026-05-04 00:50 | 28.25953 | -82.07850 | 24391 ft | 369 kts | 256° |
| 2026-05-04 00:50 | 28.25415 | -82.10660 | 24838 ft | 370 kts | 257° |
| 2026-05-04 00:50 | 28.24867 | -82.13521 | 25272 ft | 372 kts | 257° |
| 2026-05-04 00:50 | 28.24317 | -82.16392 | 25701 ft | 374 kts | 257° |
| 2026-05-04 00:51 | 28.23764 | -82.19278 | 26121 ft | 375 kts | 257° |
| 2026-05-04 00:51 | 28.23208 | -82.22173 | 26532 ft | 377 kts | 257° |
| 2026-05-04 00:51 | 28.22649 | -82.25081 | 26950 ft | 378 kts | 257° |
| 2026-05-04 00:51 | 28.22087 | -82.28003 | 27355 ft | 380 kts | 257° |
| 2026-05-04 00:52 | 28.21521 | -82.30936 | 27744 ft | 382 kts | 257° |
| 2026-05-04 00:52 | 28.20953 | -82.33883 | 28131 ft | 383 kts | 257° |
| 2026-05-04 00:52 | 28.20381 | -82.36843 | 28514 ft | 385 kts | 257° |
| 2026-05-04 00:52 | 28.19805 | -82.39819 | 28882 ft | 387 kts | 257° |
| 2026-05-04 00:53 | 28.19228 | -82.42799 | 29256 ft | 389 kts | 257° |
| 2026-05-04 00:53 | 28.18647 | -82.45797 | 29641 ft | 390 kts | 257° |
| 2026-05-04 00:53 | 28.18063 | -82.48809 | 30013 ft | 392 kts | 257° |
| 2026-05-04 00:53 | 28.17477 | -82.51820 | 30407 ft | 391 kts | 257° |
| 2026-05-04 00:54 | 28.16893 | -82.54818 | 30889 ft | 388 kts | 257° |
| 2026-05-04 00:54 | 28.16313 | -82.57793 | 31388 ft | 385 kts | 257° |
| 2026-05-04 00:54 | 28.15738 | -82.60738 | 31896 ft | 381 kts | 256° |
| 2026-05-04 00:54 | 28.15169 | -82.63655 | 32406 ft | 377 kts | 256° |
| 2026-05-04 00:55 | 28.14604 | -82.66543 | 32935 ft | 373 kts | 256° |
| 2026-05-04 00:55 | 28.14052 | -82.69362 | 33448 ft | 369 kts | 256° |
| 2026-05-04 00:55 | 28.13499 | -82.72188 | 33973 ft | 366 kts | 255° |
| 2026-05-04 00:55 | 28.12950 | -82.74986 | 34401 ft | 362 kts | 255° |
| 2026-05-04 00:56 | 28.12406 | -82.77759 | 34798 ft | 359 kts | 255° |
| 2026-05-04 00:56 | 28.11864 | -82.80510 | 35165 ft | 357 kts | 255° |
| 2026-05-04 00:56 | 28.11327 | -82.83242 | 35516 ft | 354 kts | 255° |
| 2026-05-04 00:56 | 28.10793 | -82.85958 | 35860 ft | 352 kts | 255° |
| 2026-05-04 00:57 | 28.10267 | -82.88654 | 36180 ft | 350 kts | 256° |
| 2026-05-04 00:57 | 28.09762 | -82.91348 | 36489 ft | 348 kts | 256° |
| 2026-05-04 00:57 | 28.09259 | -82.94022 | 36785 ft | 347 kts | 256° |
| 2026-05-04 00:57 | 28.08758 | -82.96683 | 37081 ft | 345 kts | 256° |
| 2026-05-04 00:58 | 28.08259 | -82.99332 | 37360 ft | 343 kts | 256° |
| 2026-05-04 00:58 | 28.07761 | -83.01969 | 37639 ft | 341 kts | 256° |
| 2026-05-04 00:58 | 28.07265 | -83.04592 | 37906 ft | 340 kts | 256° |
| 2026-05-04 00:58 | 28.06771 | -83.07204 | 38071 ft | 339 kts | 256° |
| 2026-05-04 00:59 | 28.06277 | -83.09812 | 38072 ft | 337 kts | 256° |
| 2026-05-04 00:59 | 28.05295 | -83.14983 | 38070 ft | 336 kts | 255° |
| 2026-05-04 01:00 | 28.04314 | -83.20145 | 38069 ft | 336 kts | 256° |
| 2026-05-04 01:00 | 28.03336 | -83.25278 | 38076 ft | 335 kts | 256° |
| 2026-05-04 01:01 | 28.02351 | -83.30437 | 38073 ft | 335 kts | 256° |
| 2026-05-04 01:01 | 28.01363 | -83.35596 | 38073 ft | 335 kts | 256° |
| 2026-05-04 01:02 | 28.00374 | -83.40754 | 38071 ft | 335 kts | 256° |
| 2026-05-04 01:02 | 27.99886 | -83.46013 | 38073 ft | 338 kts | 262° |
| 2026-05-04 01:03 | 27.99561 | -83.51318 | 38077 ft | 338 kts | 262° |
| 2026-05-04 01:03 | 27.99251 | -83.56618 | 38076 ft | 338 kts | 262° |
| 2026-05-04 01:04 | 27.98942 | -83.61918 | 38072 ft | 337 kts | 262° |
| 2026-05-04 01:04 | 27.98633 | -83.67213 | 38079 ft | 337 kts | 262° |
| 2026-05-04 01:05 | 27.98324 | -83.72465 | 38082 ft | 337 kts | 262° |
| 2026-05-04 01:05 | 27.98010 | -83.77758 | 38077 ft | 337 kts | 262° |
| 2026-05-04 01:06 | 27.97694 | -83.83057 | 38077 ft | 338 kts | 262° |
| 2026-05-04 01:06 | 27.97375 | -83.88363 | 38080 ft | 338 kts | 262° |
| 2026-05-04 01:07 | 27.97054 | -83.93663 | 38080 ft | 338 kts | 262° |
| 2026-05-04 01:07 | 27.96731 | -83.98972 | 38081 ft | 338 kts | 262° |
| 2026-05-04 01:08 | 27.96406 | -84.04287 | 38080 ft | 339 kts | 262° |
| 2026-05-04 01:08 | 27.96079 | -84.09596 | 38081 ft | 339 kts | 262° |
| 2026-05-04 01:09 | 27.95749 | -84.14914 | 38084 ft | 339 kts | 262° |
| 2026-05-04 01:09 | 27.95418 | -84.20226 | 38085 ft | 339 kts | 262° |
| 2026-05-04 01:10 | 27.95084 | -84.25544 | 38086 ft | 339 kts | 262° |
| 2026-05-04 01:10 | 27.94748 | -84.30863 | 38084 ft | 339 kts | 262° |
| 2026-05-04 01:11 | 27.94410 | -84.36190 | 38085 ft | 340 kts | 263° |
| 2026-05-04 01:11 | 27.94071 | -84.41482 | 38087 ft | 340 kts | 263° |
| 2026-05-04 01:12 | 27.93729 | -84.46814 | 38083 ft | 340 kts | 263° |
| 2026-05-04 01:12 | 27.93383 | -84.52143 | 38084 ft | 340 kts | 263° |
| 2026-05-04 01:13 | 27.93036 | -84.57477 | 38089 ft | 340 kts | 263° |
| 2026-05-04 01:13 | 27.92687 | -84.62814 | 38088 ft | 340 kts | 263° |
| 2026-05-04 01:14 | 27.92335 | -84.68152 | 38091 ft | 341 kts | 263° |
| 2026-05-04 01:14 | 27.91981 | -84.73496 | 38091 ft | 341 kts | 263° |
| 2026-05-04 01:15 | 27.91624 | -84.78843 | 38093 ft | 341 kts | 263° |
| 2026-05-04 01:15 | 27.91266 | -84.84194 | 38091 ft | 341 kts | 263° |
| 2026-05-04 01:16 | 27.90907 | -84.89514 | 38096 ft | 342 kts | 263° |
| 2026-05-04 01:16 | 27.90543 | -84.94871 | 38093 ft | 342 kts | 263° |
| 2026-05-04 01:17 | 27.90178 | -85.00232 | 38097 ft | 342 kts | 263° |
| 2026-05-04 01:17 | 27.89809 | -85.05599 | 38096 ft | 343 kts | 263° |
| 2026-05-04 01:18 | 27.89439 | -85.10974 | 38095 ft | 343 kts | 263° |
| 2026-05-04 01:18 | 27.89067 | -85.16358 | 38102 ft | 344 kts | 263° |
| 2026-05-04 01:19 | 27.88692 | -85.21741 | 38100 ft | 344 kts | 263° |
| 2026-05-04 01:19 | 27.89069 | -85.27125 | 38115 ft | 353 kts | 279° |
| 2026-05-04 01:20 | 27.90506 | -85.32461 | 38104 ft | 356 kts | 281° |
| 2026-05-04 01:20 | 27.92060 | -85.37780 | 38109 ft | 357 kts | 281° |
| 2026-05-04 01:21 | 27.93654 | -85.43098 | 38110 ft | 357 kts | 282° |
| 2026-05-04 01:21 | 27.95260 | -85.48421 | 38110 ft | 358 kts | 282° |
| 2026-05-04 01:22 | 27.96868 | -85.53751 | 38113 ft | 358 kts | 282° |
| 2026-05-04 01:22 | 27.98475 | -85.59087 | 38115 ft | 358 kts | 282° |
| 2026-05-04 01:23 | 28.00080 | -85.64426 | 38118 ft | 359 kts | 282° |
| 2026-05-04 01:23 | 28.01686 | -85.69776 | 38118 ft | 359 kts | 282° |
| 2026-05-04 01:24 | 28.03290 | -85.75128 | 38117 ft | 360 kts | 282° |
| 2026-05-04 01:24 | 28.04895 | -85.80493 | 38117 ft | 360 kts | 282° |
| 2026-05-04 01:25 | 28.06498 | -85.85857 | 38117 ft | 360 kts | 283° |
| 2026-05-04 01:25 | 28.08098 | -85.91224 | 38116 ft | 360 kts | 283° |
| 2026-05-04 01:26 | 28.09698 | -85.96595 | 38116 ft | 360 kts | 283° |
| 2026-05-04 01:26 | 28.11295 | -86.01968 | 38122 ft | 360 kts | 283° |
| 2026-05-04 01:27 | 28.12891 | -86.07343 | 38122 ft | 360 kts | 283° |
| 2026-05-04 01:27 | 28.14484 | -86.12720 | 38123 ft | 360 kts | 283° |
| 2026-05-04 01:28 | 28.16077 | -86.18102 | 38125 ft | 360 kts | 283° |
| 2026-05-04 01:28 | 28.17657 | -86.23450 | 38126 ft | 360 kts | 283° |
| 2026-05-04 01:29 | 28.19244 | -86.28833 | 38118 ft | 360 kts | 283° |
| 2026-05-04 01:29 | 28.20830 | -86.34219 | 38120 ft | 360 kts | 283° |
| 2026-05-04 01:30 | 28.22415 | -86.39607 | 38122 ft | 360 kts | 283° |
| 2026-05-04 01:30 | 28.23996 | -86.44996 | 38123 ft | 360 kts | 283° |
| 2026-05-04 01:31 | 28.25576 | -86.50389 | 38119 ft | 360 kts | 283° |
| 2026-05-04 01:31 | 28.27153 | -86.55780 | 38127 ft | 360 kts | 283° |
| 2026-05-04 01:32 | 28.28728 | -86.61170 | 38122 ft | 360 kts | 283° |
| 2026-05-04 01:32 | 28.30303 | -86.66567 | 38125 ft | 360 kts | 284° |
| 2026-05-04 01:33 | 28.31625 | -86.71091 | 38131 ft | 360 kts | 284° |
| 2026-05-04 01:33 | 28.33206 | -86.76487 | 38127 ft | 360 kts | 284° |
| 2026-05-04 01:34 | 28.34776 | -86.81849 | 38127 ft | 361 kts | 284° |
| 2026-05-04 01:34 | 28.36356 | -86.87254 | 38133 ft | 361 kts | 284° |
| 2026-05-04 01:35 | 28.37934 | -86.92661 | 38131 ft | 361 kts | 284° |
| 2026-05-04 01:35 | 28.39511 | -86.98072 | 38134 ft | 361 kts | 284° |
| 2026-05-04 01:36 | 28.41087 | -87.03490 | 38132 ft | 361 kts | 284° |
| 2026-05-04 01:36 | 28.42661 | -87.08913 | 38131 ft | 362 kts | 284° |
| 2026-05-04 01:37 | 28.44234 | -87.14339 | 38130 ft | 362 kts | 284° |
| 2026-05-04 01:37 | 28.45808 | -87.19774 | 38131 ft | 362 kts | 284° |
| 2026-05-04 01:38 | 28.47379 | -87.25211 | 38133 ft | 362 kts | 284° |
| 2026-05-04 01:38 | 28.48948 | -87.30654 | 38132 ft | 362 kts | 284° |
| 2026-05-04 01:39 | 28.50518 | -87.36103 | 38131 ft | 363 kts | 284° |
| 2026-05-04 01:39 | 28.52085 | -87.41553 | 38136 ft | 363 kts | 284° |
| 2026-05-04 01:40 | 28.53652 | -87.47013 | 38136 ft | 363 kts | 284° |
| 2026-05-04 01:40 | 28.55217 | -87.52475 | 38140 ft | 363 kts | 285° |
| 2026-05-04 01:41 | 28.56781 | -87.57944 | 38134 ft | 364 kts | 285° |
| 2026-05-04 01:41 | 28.58344 | -87.63418 | 38139 ft | 364 kts | 285° |
| 2026-05-04 01:42 | 28.59906 | -87.68898 | 38137 ft | 364 kts | 285° |
| 2026-05-04 01:42 | 28.61456 | -87.74342 | 38144 ft | 364 kts | 285° |
| 2026-05-04 01:43 | 28.63014 | -87.79829 | 38137 ft | 365 kts | 285° |
| 2026-05-04 01:43 | 28.64573 | -87.85324 | 38137 ft | 365 kts | 285° |
| 2026-05-04 01:44 | 28.66130 | -87.90823 | 38138 ft | 365 kts | 285° |
| 2026-05-04 01:44 | 28.67686 | -87.96330 | 38137 ft | 365 kts | 285° |
| 2026-05-04 01:45 | 28.69242 | -88.01840 | 38143 ft | 366 kts | 285° |
| 2026-05-04 01:45 | 28.71571 | -88.10114 | 38139 ft | 366 kts | 285° |
| 2026-05-04 01:46 | 28.73121 | -88.15636 | 38142 ft | 366 kts | 285° |
| 2026-05-04 01:46 | 28.74672 | -88.21165 | 38142 ft | 366 kts | 285° |
| 2026-05-04 01:47 | 28.76219 | -88.26694 | 38142 ft | 366 kts | 286° |